createdAt,value
2023-03-26T00:01:35.373Z,12.59
2023-03-26T00:04:03.840Z,12.50
2023-03-26T00:06:34.044Z,12.55
2023-03-26T00:09:01.849Z,12.69
2023-03-26T00:11:29.797Z,12.67
2023-03-26T00:13:58.186Z,12.44
2023-03-26T00:16:29.541Z,12.48
2023-03-26T00:18:57.791Z,12.61
2023-03-26T00:21:27.411Z,12.78
2023-03-26T00:24:00.686Z,12.69
2023-03-26T00:26:28.427Z,12.62
2023-03-26T00:28:55.651Z,12.63
2023-03-26T00:31:23.079Z,12.72
2023-03-26T00:33:52.323Z,12.68
2023-03-26T00:36:19.626Z,12.58
2023-03-26T00:38:47.542Z,12.51
2023-03-26T00:41:17.546Z,12.60
2023-03-26T00:43:46.432Z,12.32
2023-03-26T00:46:17.454Z,12.21
2023-03-26T00:48:46.346Z,12.24
2023-03-26T00:51:15.981Z,12.48
2023-03-26T00:53:45.401Z,12.27
2023-03-26T00:56:13.195Z,12.16
2023-03-26T00:58:41.470Z,12.32
2023-03-26T01:01:12.408Z,12.56
2023-03-26T01:03:42.722Z,12.39
2023-03-26T01:06:34.038Z,12.24
2023-03-26T01:09:23.645Z,12.09
2023-03-26T01:11:51.080Z,12.16
2023-03-26T01:14:23.266Z,12.07
2023-03-26T01:16:56.957Z,11.91
2023-03-26T01:19:44.457Z,12.03
2023-03-26T01:22:17.199Z,12.12
2023-03-26T01:24:44.710Z,12.03
2023-03-26T01:27:38.326Z,11.75
2023-03-26T01:30:48.442Z,11.72
2023-03-26T01:33:37.559Z,11.72
2023-03-26T01:36:23.932Z,11.73
2023-03-26T01:39:16.154Z,11.65
2023-03-26T01:41:47.406Z,11.87
2023-03-26T01:44:27.205Z,11.87
2023-03-26T01:46:55.311Z,11.58
2023-03-26T01:49:22.818Z,11.67
2023-03-26T01:51:51.156Z,11.79
2023-03-26T01:54:22.388Z,11.72
2023-03-26T01:57:26.429Z,11.43
2023-03-26T02:00:31.628Z,11.41
2023-03-26T02:03:13.363Z,11.81
2023-03-26T02:05:49.104Z,11.75
2023-03-26T02:08:40.374Z,11.58
2023-03-26T02:11:12.196Z,11.67
2023-03-26T02:13:42.031Z,11.53
2023-03-26T02:16:12.487Z,11.48
2023-03-26T02:18:40.835Z,11.51
2023-03-26T02:21:14.667Z,11.62
2023-03-26T02:23:44.013Z,11.59
2023-03-26T02:26:11.576Z,11.51
2023-03-26T02:28:38.988Z,11.61
2023-03-26T02:31:07.708Z,11.61
2023-03-26T02:33:35.403Z,11.61
2023-03-26T02:36:04.539Z,11.69
2023-03-26T02:38:32.661Z,11.54
2023-03-26T02:41:00.104Z,11.66
2023-03-26T02:43:28.482Z,11.47
2023-03-26T02:45:56.361Z,11.48
2023-03-26T02:48:24.006Z,11.57
2023-03-26T02:50:51.368Z,11.51
2023-03-26T02:53:18.950Z,11.52
2023-03-26T02:55:46.217Z,11.58
2023-03-26T02:58:14.093Z,11.45
2023-03-26T03:00:41.888Z,11.44
2023-03-26T03:03:09.369Z,11.35
2023-03-26T03:05:36.783Z,11.22
2023-03-26T03:08:05.075Z,11.37
2023-03-26T03:10:32.672Z,11.32
2023-03-26T03:13:00.233Z,11.29
2023-03-26T03:15:27.556Z,11.28
2023-03-26T03:17:54.810Z,11.25
2023-03-26T03:20:22.325Z,11.05
2023-03-26T03:22:49.652Z,11.26
2023-03-26T03:25:17.086Z,10.96
2023-03-26T03:27:44.967Z,10.90
2023-03-26T03:30:13.648Z,10.76
2023-03-26T03:32:41.151Z,11.12
2023-03-26T03:35:09.056Z,10.87
2023-03-26T03:37:36.423Z,10.71
2023-03-26T03:40:05.195Z,10.71
2023-03-26T03:42:32.533Z,10.89
2023-03-26T03:45:07.378Z,10.89
2023-03-26T03:47:34.805Z,10.61
2023-03-26T03:50:03.612Z,10.47
2023-03-26T03:52:32.166Z,10.64
2023-03-26T03:55:00.275Z,10.33
2023-03-26T03:57:28.900Z,10.34
2023-03-26T03:59:56.698Z,10.34
2023-03-26T04:02:26.255Z,10.68
2023-03-26T04:04:55.426Z,10.58
2023-03-26T04:07:24.688Z,10.65
2023-03-26T04:09:53.168Z,10.62
2023-03-26T04:12:21.034Z,10.86
2023-03-26T04:14:49.221Z,10.52
2023-03-26T04:17:16.603Z,10.70
2023-03-26T04:19:43.888Z,10.48
2023-03-26T04:22:12.199Z,10.43
2023-03-26T04:24:39.635Z,11.15
2023-03-26T04:27:15.070Z,12.38
2023-03-26T04:29:46.039Z,13.16
2023-03-26T04:32:32.686Z,13.61
2023-03-26T04:35:04.344Z,13.92
2023-03-26T04:37:40.997Z,14.51
2023-03-26T04:40:13.769Z,14.89
2023-03-26T04:42:41.213Z,14.49
2023-03-26T04:45:09.406Z,14.99
2023-03-26T04:47:36.945Z,14.82
2023-03-26T04:50:10.405Z,14.29
2023-03-26T04:52:38.277Z,15.80
2023-03-26T04:55:12.422Z,15.19
2023-03-26T04:57:44.292Z,14.81
2023-03-26T05:00:14.370Z,14.95
2023-03-26T05:02:45.488Z,15.39
2023-03-26T05:05:13.684Z,13.99
2023-03-26T05:07:41.642Z,14.44
2023-03-26T05:10:13.533Z,14.78
2023-03-26T05:12:41.787Z,15.41
2023-03-26T05:15:11.253Z,15.61
2023-03-26T05:17:38.917Z,14.98
2023-03-26T05:20:06.812Z,14.87
2023-03-26T05:22:36.024Z,14.77
2023-03-26T05:25:05.354Z,15.04
2023-03-26T05:27:33.415Z,15.44
2023-03-26T05:30:02.297Z,15.86
2023-03-26T05:32:31.006Z,16.55
2023-03-26T05:34:59.187Z,16.15
2023-03-26T05:37:29.065Z,16.58
2023-03-26T05:39:57.183Z,17.12
2023-03-26T05:42:24.500Z,17.07
2023-03-26T05:44:51.917Z,17.28
2023-03-26T05:47:19.318Z,16.79
2023-03-26T05:49:47.035Z,17.04
2023-03-26T05:52:14.404Z,17.15
2023-03-26T05:54:42.401Z,16.79
2023-03-26T05:57:09.755Z,17.51
2023-03-26T05:59:37.642Z,17.68
2023-03-26T06:02:05.183Z,17.34
2023-03-26T06:04:33.099Z,16.91
2023-03-26T06:07:00.709Z,17.22
2023-03-26T06:09:28.874Z,17.98
2023-03-26T06:11:56.448Z,18.17
2023-03-26T06:14:23.878Z,18.60
2023-03-26T06:16:51.621Z,18.78
2023-03-26T06:19:18.948Z,19.75
2023-03-26T06:21:46.308Z,19.04
2023-03-26T06:24:13.762Z,19.03
2023-03-26T06:26:41.233Z,19.22
2023-03-26T06:29:08.922Z,19.40
2023-03-26T06:31:36.554Z,19.91
2023-03-26T06:34:03.870Z,20.13
2023-03-26T06:36:31.448Z,19.55
2023-03-26T06:38:58.962Z,19.91
2023-03-26T06:41:26.428Z,19.36
2023-03-26T06:43:53.770Z,19.05
2023-03-26T06:46:21.487Z,18.70
2023-03-26T06:48:49.115Z,17.76
2023-03-26T06:51:16.643Z,18.00
2023-03-26T06:53:44.074Z,17.10
2023-03-26T06:56:11.550Z,17.55
2023-03-26T06:58:38.852Z,17.74
2023-03-26T07:01:06.438Z,17.32
2023-03-26T07:03:33.847Z,17.29
2023-03-26T07:06:01.358Z,17.09
2023-03-26T07:08:34.623Z,16.60
2023-03-26T07:11:02.072Z,16.39
2023-03-26T07:13:30.047Z,16.89
2023-03-26T07:15:57.846Z,16.39
2023-03-26T07:18:25.223Z,17.10
2023-03-26T07:20:53.117Z,16.81
2023-03-26T07:23:21.190Z,16.50
2023-03-26T07:25:48.988Z,16.23
2023-03-26T07:28:22.181Z,16.54
2023-03-26T07:31:00.618Z,16.57
2023-03-26T07:33:56.212Z,16.88
2023-03-26T07:36:26.416Z,17.13
2023-03-26T07:39:34.786Z,16.81
2023-03-26T07:42:30.561Z,17.26
2023-03-26T07:44:57.883Z,16.72
2023-03-26T07:47:32.750Z,17.33
2023-03-26T07:50:00.484Z,17.65
2023-03-26T07:52:28.447Z,17.16
2023-03-26T07:54:56.136Z,17.36
2023-03-26T07:57:51.620Z,17.54
2023-03-26T08:00:37.334Z,17.77
2023-03-26T08:03:18.586Z,17.63
2023-03-26T08:06:21.390Z,17.76
2023-03-26T08:08:48.764Z,17.84
2023-03-26T08:11:15.995Z,18.38
2023-03-26T08:13:58.382Z,18.67
2023-03-26T08:16:44.279Z,18.34
2023-03-26T08:19:34.582Z,18.22
2023-03-26T08:22:16.574Z,18.43
2023-03-26T08:25:06.531Z,18.13
2023-03-26T08:27:39.977Z,18.55
2023-03-26T08:30:10.815Z,18.19
2023-03-26T08:32:38.508Z,18.48
2023-03-26T08:35:06.468Z,18.23
2023-03-26T08:37:33.982Z,18.15
2023-03-26T08:40:01.446Z,18.21
2023-03-26T08:43:01.383Z,18.51
2023-03-26T08:45:49.015Z,18.52
2023-03-26T08:48:22.566Z,18.82
2023-03-26T08:51:08.897Z,19.86
2023-03-26T08:54:10.830Z,20.74
2023-03-26T08:57:12.088Z,20.60
2023-03-26T08:59:54.354Z,19.93
2023-03-26T09:02:52.470Z,19.96
2023-03-26T09:05:54.552Z,19.70
2023-03-26T09:08:30.727Z,19.67
2023-03-26T09:11:25.713Z,20.33
2023-03-26T09:14:08.972Z,20.50
2023-03-26T09:16:54.774Z,20.31
2023-03-26T09:19:31.269Z,19.67
2023-03-26T09:22:17.410Z,20.22
2023-03-26T09:25:03.519Z,19.89
2023-03-26T09:27:33.985Z,20.29
2023-03-26T09:30:31.862Z,20.30
2023-03-26T09:33:11.248Z,20.95
2023-03-26T09:35:55.837Z,20.45
2023-03-26T09:38:38.460Z,19.92
2023-03-26T09:41:15.572Z,20.60
2023-03-26T09:44:04.342Z,20.91
2023-03-26T09:46:49.085Z,19.87
2023-03-26T09:49:26.056Z,20.30
2023-03-26T09:52:03.521Z,19.64
2023-03-26T09:54:46.897Z,20.49
2023-03-26T09:57:23.377Z,20.37
2023-03-26T10:00:20.554Z,20.43
2023-03-26T10:03:09.911Z,20.18
2023-03-26T10:05:40.326Z,20.50
2023-03-26T10:08:23.067Z,20.39
2023-03-26T10:10:54.262Z,20.18
2023-03-26T10:13:33.769Z,20.51
2023-03-26T10:16:23.119Z,20.67
2023-03-26T10:19:10.731Z,20.08
2023-03-26T10:21:50.112Z,20.36
2023-03-26T10:24:28.837Z,20.36
2023-03-26T10:27:17.749Z,20.52
2023-03-26T10:30:37.755Z,20.21
2023-03-26T10:33:20.521Z,20.35
2023-03-26T10:35:57.083Z,19.99
2023-03-26T10:38:43.294Z,20.58
2023-03-26T10:41:23.750Z,20.94
2023-03-26T10:44:15.413Z,20.91
2023-03-26T10:46:54.200Z,20.55
2023-03-26T10:50:04.466Z,20.75
2023-03-26T10:52:36.723Z,20.63
2023-03-26T10:55:14.973Z,20.69
2023-03-26T10:57:45.747Z,20.87
2023-03-26T11:00:28.212Z,20.40
2023-03-26T11:03:13.691Z,20.22
2023-03-26T11:06:03.111Z,19.24
2023-03-26T11:08:49.907Z,19.11
2023-03-26T11:11:35.592Z,19.25
2023-03-26T11:14:10.533Z,19.52
2023-03-26T11:17:40.983Z,19.72
2023-03-26T11:20:06.091Z,19.39
2023-03-26T11:22:50.243Z,19.57
2023-03-26T11:25:32.284Z,19.34
2023-03-26T11:28:21.589Z,19.39
2023-03-26T11:31:13.543Z,19.18
2023-03-26T11:33:46.413Z,19.45
2023-03-26T11:36:22.561Z,19.43
2023-03-26T11:38:51.733Z,19.34
2023-03-26T11:41:27.831Z,19.40
2023-03-26T11:44:03.131Z,19.84
2023-03-26T11:46:33.842Z,19.55
2023-03-26T11:49:09.985Z,19.43
2023-03-26T11:51:39.633Z,18.99
2023-03-26T11:54:08.050Z,19.32
2023-03-26T11:57:05.497Z,19.27
2023-03-26T11:59:57.990Z,19.04
2023-03-26T12:02:28.640Z,19.08
2023-03-26T12:05:17.329Z,18.79
2023-03-26T12:08:11.310Z,19.16
2023-03-26T12:10:42.025Z,18.96
2023-03-26T12:13:35.570Z,19.15
2023-03-26T12:16:23.797Z,18.82
2023-03-26T12:19:17.340Z,19.07
2023-03-26T12:21:48.101Z,18.80
2023-03-26T12:24:29.158Z,19.21
2023-03-26T12:27:01.014Z,19.04
2023-03-26T12:29:31.536Z,18.92
2023-03-26T12:32:13.311Z,19.16
2023-03-26T12:34:41.758Z,19.44
2023-03-26T12:37:35.287Z,19.00
2023-03-26T12:40:32.132Z,19.09
2023-03-26T12:44:53.414Z,19.08
2023-03-26T12:47:54.142Z,18.93
2023-03-26T12:48:45.460Z,18.68
2023-03-26T12:51:55.856Z,18.96
2023-03-26T12:54:55.192Z,19.01
2023-03-26T12:57:33.018Z,19.17
2023-03-26T13:00:16.160Z,19.32
2023-03-26T13:03:04.385Z,19.08
2023-03-26T13:06:02.841Z,19.31
2023-03-26T13:08:54.535Z,19.67
2023-03-26T13:11:33.796Z,19.30
2023-03-26T13:14:16.968Z,18.95
2023-03-26T13:16:56.897Z,18.93
2023-03-26T13:19:40.341Z,19.50
2023-03-26T13:22:29.201Z,20.08
2023-03-26T13:25:15.860Z,20.12
2023-03-26T13:28:27.462Z,20.40
2023-03-26T13:31:00.698Z,19.72
2023-03-26T13:33:40.206Z,19.74
2023-03-26T13:36:23.258Z,19.82
2023-03-26T13:39:22.291Z,20.25
2023-03-26T13:42:05.937Z,20.08
2023-03-26T13:44:48.587Z,19.99
2023-03-26T13:47:25.942Z,19.72
2023-03-26T13:50:03.565Z,19.58
2023-03-26T13:52:40.664Z,19.21
2023-03-26T13:55:32.474Z,19.08
2023-03-26T13:58:08.983Z,19.12
2023-03-26T14:00:50.831Z,18.87
2023-03-26T14:03:33.594Z,19.10
2023-03-26T14:06:06.546Z,18.86
2023-03-26T14:08:47.279Z,19.02
2023-03-26T14:11:28.354Z,19.33
2023-03-26T14:14:10.261Z,19.09
2023-03-26T14:16:48.055Z,18.98
2023-03-26T14:19:24.853Z,18.84
2023-03-26T14:21:54.923Z,18.89
2023-03-26T14:24:34.763Z,18.75
2023-03-26T14:27:37.416Z,18.94
2023-03-26T14:30:35.135Z,19.07
2023-03-26T14:33:11.269Z,19.03
2023-03-26T14:35:57.766Z,18.87
2023-03-26T14:38:57.935Z,18.98
2023-03-26T14:41:33.083Z,18.82
2023-03-26T14:44:28.794Z,18.93
2023-03-26T14:47:16.923Z,18.93
2023-03-26T14:50:08.945Z,18.69
2023-03-26T14:52:52.325Z,18.73
2023-03-26T14:56:05.533Z,18.57
2023-03-26T14:58:59.225Z,18.78
2023-03-26T15:01:46.813Z,18.62
2023-03-26T15:04:39.137Z,18.68
2023-03-26T15:07:36.223Z,18.46
2023-03-26T15:10:11.967Z,18.68
2023-03-26T15:13:07.695Z,18.57
2023-03-26T15:15:59.991Z,18.47
2023-03-26T15:18:45.367Z,18.47
2023-03-26T15:21:43.374Z,18.37
2023-03-26T15:24:16.483Z,18.40
2023-03-26T15:27:22.838Z,18.41
2023-03-26T15:30:00.772Z,18.31
2023-03-26T15:32:50.057Z,18.18
2023-03-26T15:35:46.615Z,18.24
2023-03-26T15:38:38.919Z,18.06
2023-03-26T15:41:25.194Z,17.99
2023-03-26T15:44:24.389Z,17.91
2023-03-26T15:47:25.696Z,17.87
2023-03-26T15:50:22.863Z,17.95
2023-03-26T15:53:31.838Z,17.82
2023-03-26T15:56:15.990Z,17.76
2023-03-26T15:58:55.962Z,17.76
2023-03-26T16:01:48.048Z,17.54
2023-03-26T16:04:28.888Z,17.70
2023-03-26T16:07:45.164Z,17.43
2023-03-26T16:10:33.745Z,17.42
2023-03-26T16:13:17.135Z,18.13
2023-03-26T16:16:03.712Z,18.55
2023-03-26T16:18:35.660Z,18.65
2023-03-26T16:21:32.308Z,18.30
2023-03-26T16:24:03.074Z,17.70
2023-03-26T16:26:46.388Z,17.41
2023-03-26T16:29:13.780Z,17.28
2023-03-26T16:31:59.741Z,17.16
2023-03-26T16:34:37.725Z,16.89
2023-03-26T16:37:26.071Z,16.85
2023-03-26T16:39:54.082Z,16.84
2023-03-26T16:42:39.840Z,16.74
2023-03-26T16:45:32.784Z,16.78
2023-03-26T16:48:25.721Z,16.66
2023-03-26T16:50:57.637Z,16.56
2023-03-26T16:53:59.764Z,17.40
2023-03-26T16:56:37.319Z,18.30
2023-03-26T16:59:09.153Z,18.15
2023-03-26T17:01:47.438Z,17.44
2023-03-26T17:04:19.528Z,16.88
2023-03-26T17:07:14.568Z,16.43
2023-03-26T17:09:59.274Z,16.56
2023-03-26T17:12:44.297Z,16.27
2023-03-26T17:15:30.442Z,16.25
2023-03-26T17:18:25.290Z,16.28
2023-03-26T17:20:58.703Z,16.19
2023-03-26T17:23:47.177Z,16.03
2023-03-26T17:26:31.222Z,16.08
2023-03-26T17:29:13.991Z,16.03
2023-03-26T17:32:02.060Z,15.74
2023-03-26T17:34:33.954Z,15.60
2023-03-26T17:37:04.252Z,15.46
2023-03-26T17:39:40.712Z,15.39
2023-03-26T17:42:22.488Z,15.43
2023-03-26T17:44:51.681Z,15.26
2023-03-26T17:47:37.329Z,15.07
2023-03-26T17:50:27.585Z,14.95
2023-03-26T17:53:01.128Z,14.94
2023-03-26T17:55:36.354Z,14.85
2023-03-26T17:58:07.646Z,14.87
2023-03-26T18:00:49.636Z,14.95
2023-03-26T18:03:31.047Z,14.98
2023-03-26T18:06:08.377Z,15.11
2023-03-26T18:09:14.583Z,15.01
2023-03-26T18:12:00.723Z,14.93
2023-03-26T18:14:53.658Z,14.95
2023-03-26T18:17:21.377Z,14.93
2023-03-26T18:19:53.979Z,14.97
2023-03-26T18:22:28.408Z,14.94
2023-03-26T18:25:01.064Z,14.87
2023-03-26T18:27:40.641Z,14.79
2023-03-26T18:30:15.898Z,14.74
2023-03-26T18:33:01.578Z,14.58
2023-03-26T18:35:49.772Z,14.56
2023-03-26T18:38:34.983Z,14.40
2023-03-26T18:41:09.741Z,14.41
2023-03-26T18:43:44.410Z,14.24
2023-03-26T18:46:17.783Z,14.27
2023-03-26T18:48:46.649Z,14.30
2023-03-26T18:51:14.209Z,14.07
2023-03-26T18:53:52.086Z,14.17
2023-03-26T18:56:35.863Z,14.21
2023-03-26T18:59:06.928Z,14.17
2023-03-26T19:01:37.329Z,14.12
2023-03-26T19:04:06.967Z,13.92
2023-03-26T19:06:38.453Z,14.05
2023-03-26T19:09:19.584Z,13.94
2023-03-26T19:11:57.311Z,13.85
2023-03-26T19:14:25.179Z,13.84
2023-03-26T19:17:00.450Z,13.85
2023-03-26T19:19:35.684Z,13.79
2023-03-26T19:22:07.454Z,13.57
2023-03-26T19:24:35.133Z,13.48
2023-03-26T19:27:03.433Z,13.45
2023-03-26T19:29:36.005Z,14.80
2023-03-26T19:32:21.640Z,14.07
2023-03-26T19:34:49.477Z,13.76
2023-03-26T19:37:19.001Z,13.43
2023-03-26T19:39:50.210Z,13.39
2023-03-26T19:42:20.211Z,13.44
2023-03-26T19:44:48.046Z,13.34
2023-03-26T19:47:25.001Z,13.17
2023-03-26T19:50:27.415Z,13.46
2023-03-26T19:53:29.880Z,13.48
2023-03-26T19:56:16.570Z,13.37
2023-03-26T19:58:44.188Z,13.40
2023-03-26T20:01:30.826Z,13.32
2023-03-26T20:04:02.081Z,13.27
2023-03-26T20:06:41.715Z,13.11
2023-03-26T20:09:12.558Z,12.98
2023-03-26T20:11:40.222Z,13.09
2023-03-26T20:14:18.917Z,13.27
2023-03-26T20:16:46.419Z,13.20
2023-03-26T20:19:15.490Z,13.12
2023-03-26T20:21:44.567Z,13.20
2023-03-26T20:24:15.042Z,13.01
2023-03-26T20:26:43.993Z,13.04
2023-03-26T20:29:15.236Z,13.02
2023-03-26T20:31:43.300Z,12.90
2023-03-26T20:34:20.421Z,12.73
2023-03-26T20:36:48.719Z,12.77
2023-03-26T20:39:16.164Z,12.82
2023-03-26T20:41:48.808Z,12.90
2023-03-26T20:44:19.902Z,13.03
2023-03-26T20:46:48.774Z,12.73
2023-03-26T20:49:16.250Z,12.84
2023-03-26T20:51:43.993Z,12.74
2023-03-26T20:54:20.599Z,12.56
2023-03-26T20:56:49.419Z,12.43
2023-03-26T20:59:20.465Z,12.22
2023-03-26T21:01:50.957Z,12.16
2023-03-26T21:04:28.927Z,12.45
2023-03-26T21:07:07.176Z,12.63
2023-03-26T21:09:43.043Z,12.37
2023-03-26T21:12:27.788Z,12.18
2023-03-26T21:14:55.832Z,12.34
2023-03-26T21:17:23.984Z,12.26
2023-03-26T21:19:55.138Z,12.41
2023-03-26T21:23:03.808Z,12.27
2023-03-26T21:25:48.218Z,12.21
2023-03-26T21:28:41.996Z,12.04
2023-03-26T21:31:16.404Z,11.76
2023-03-26T21:33:44.659Z,11.73
2023-03-26T21:36:12.494Z,11.95
2023-03-26T21:38:40.956Z,11.89
2023-03-26T21:41:24.922Z,11.84
2023-03-26T21:43:52.325Z,11.84
2023-03-26T21:46:19.991Z,11.62
2023-03-26T21:48:47.630Z,11.64
2023-03-26T21:51:15.908Z,11.68
2023-03-26T21:53:43.469Z,11.69
2023-03-26T21:56:41.604Z,11.47
2023-03-26T21:59:16.889Z,11.42
2023-03-26T22:02:22.642Z,11.69
2023-03-26T22:05:15.080Z,11.51
2023-03-26T22:07:58.678Z,11.34
2023-03-26T22:10:29.167Z,11.37
2023-03-26T22:12:59.069Z,11.48
2023-03-26T22:15:26.548Z,11.67
2023-03-26T22:17:54.307Z,11.75
2023-03-26T22:20:23.605Z,11.68
2023-03-26T22:22:51.155Z,11.45
2023-03-26T22:25:20.352Z,11.32
2023-03-26T22:27:50.628Z,11.36
2023-03-26T22:30:18.763Z,11.50
2023-03-26T22:32:46.711Z,11.67
2023-03-26T22:35:14.285Z,11.56
2023-03-26T22:37:41.998Z,11.28
2023-03-26T22:40:09.934Z,11.41
2023-03-26T22:42:39.695Z,11.18
2023-03-26T22:45:11.016Z,11.25
2023-03-26T22:47:41.299Z,11.47
2023-03-26T22:50:09.410Z,11.26
2023-03-26T22:52:37.565Z,11.36
2023-03-26T22:55:05.212Z,11.51
2023-03-26T22:57:32.970Z,12.06
2023-03-26T23:00:00.350Z,11.74
2023-03-26T23:02:27.828Z,11.21
2023-03-26T23:04:55.183Z,10.96
2023-03-26T23:07:22.596Z,10.82
2023-03-26T23:09:50.048Z,10.80
2023-03-26T23:12:17.307Z,10.98
2023-03-26T23:14:44.729Z,11.04
2023-03-26T23:17:12.212Z,10.85
2023-03-26T23:19:39.490Z,11.17
2023-03-26T23:22:06.888Z,11.14
2023-03-26T23:24:34.511Z,10.98
2023-03-26T23:27:01.980Z,10.70
2023-03-26T23:29:29.286Z,10.70
2023-03-26T23:31:56.567Z,10.79
2023-03-26T23:34:25.885Z,10.63
2023-03-26T23:36:53.215Z,10.35
2023-03-26T23:39:21.013Z,10.58
2023-03-26T23:41:48.538Z,10.49
2023-03-26T23:44:16.051Z,10.63
2023-03-26T23:46:43.381Z,10.68
2023-03-26T23:49:10.939Z,10.64
2023-03-26T23:51:38.279Z,10.71
2023-03-26T23:54:05.690Z,10.92
2023-03-26T23:56:33.584Z,10.99
2023-03-26T23:59:00.976Z,11.20
